Time;durP1;ratioP1;P1;durP2;ratioP2;P2;SDS_P1;SDS_P2;PMS_P1;PMS_P2;Temp;Humidity;BMP_temperature;BMP_pressure;BME280_temperature;BME280_humidity;BME280_pressure;Samples;Min_cycle;Max_cycle;Signal;HPM_P1;HPM_P2
2022/08/11 00:01:52;;;;;;;1.20;1.10;;;27.30;44.20;;;;;;5017381;28;20024;-84
2022/08/11 00:04:22;;;;;;;1.45;1.30;;;27.20;44.10;;;;;;5013144;28;20018;-83
2022/08/11 00:06:49;;;;;;;1.40;1.23;;;27.20;44.20;;;;;;5006357;28;20022;-84
2022/08/11 00:09:23;;;;;;;1.42;1.20;;;27.20;44.20;;;;;;4983393;28;20294;-83
2022/08/11 00:11:52;;;;;;;1.33;1.20;;;27.20;44.90;;;;;;5011254;28;20050;-83
2022/08/11 00:14:20;;;;;;;1.50;1.35;;;27.20;44.20;;;;;;4978766;28;20046;-84
2022/08/11 00:17:01;;;;;;;1.30;1.20;;;27.10;44.20;;;;;;5009661;28;20113;-83
2022/08/11 00:19:31;;;;;;;1.42;1.13;;;27.10;44.30;;;;;;4991877;28;20037;-84
2022/08/11 00:21:58;;;;;;;1.88;1.40;;;27.10;44.30;;;;;;4978921;28;20034;-83
2022/08/11 00:24:24;;;;;;;1.33;1.23;;;27.10;44.30;;;;;;4988107;28;20034;-84
2022/08/11 00:26:52;;;;;;;1.40;1.30;;;27.10;44.30;;;;;;4987553;28;20026;-84
2022/08/11 00:29:19;;;;;;;1.80;1.40;;;27.00;44.30;;;;;;4994909;28;20044;-84
2022/08/11 00:31:51;;;;;;;1.80;1.30;;;27.00;44.40;;;;;;4978857;28;20081;-84
2022/08/11 00:34:29;;;;;;;1.42;1.33;;;27.00;44.40;;;;;;4993390;28;20038;-84
2022/08/11 00:37:03;;;;;;;1.85;1.38;;;27.00;44.50;;;;;;4991805;28;20026;-84
2022/08/11 00:39:35;;;;;;;1.20;1.13;;;26.90;44.40;;;;;;5015617;28;20479;-83
2022/08/11 00:42:28;;;;;;;2.20;1.60;;;26.90;44.40;;;;;;5013757;28;20502;-83
2022/08/11 00:45:12;;;;;;;1.48;1.38;;;26.80;44.40;;;;;;4975091;28;20018;-84
2022/08/11 00:47:43;;;;;;;1.27;1.17;;;26.80;44.50;;;;;;4990457;28;20042;-83
2022/08/11 00:50:25;;;;;;;1.20;1.02;;;26.80;44.50;;;;;;4999082;28;20049;-84
2022/08/11 00:53:13;;;;;;;1.48;1.38;;;26.70;44.50;;;;;;5013408;28;20113;-85
2022/08/11 00:55:44;;;;;;;1.45;1.10;;;26.70;44.60;;;;;;4984976;28;20034;-84
2022/08/11 00:58:32;;;;;;;1.33;1.23;;;26.70;44.60;;;;;;4997376;28;20074;-84
2022/08/11 01:01:16;;;;;;;1.50;1.35;;;26.60;44.60;;;;;;5018494;28;20036;-84
2022/08/11 01:04:03;;;;;;;1.40;1.30;;;26.60;44.70;;;;;;4993650;28;20100;-83
2022/08/11 01:06:48;;;;;;;1.55;1.40;;;26.60;44.70;;;;;;4995595;28;20025;-86
2022/08/11 01:09:51;;;;;;;1.55;1.40;;;26.60;44.70;;;;;;4991324;28;20432;-84
2022/08/11 01:12:49;;;;;;;1.75;1.23;;;26.50;44.70;;;;;;4997817;28;20122;-84
2022/08/11 01:16:04;;;;;;;1.40;1.20;;;26.50;44.70;;;;;;4995341;28;20041;-83
2022/08/11 01:18:49;;;;;;;1.30;1.20;;;26.40;44.80;;;;;;5000108;28;20034;-84
2022/08/11 01:21:33;;;;;;;1.38;1.27;;;26.40;44.70;;;;;;4983291;28;20037;-83
2022/08/11 01:24:30;;;;;;;1.90;1.40;;;26.40;44.80;;;;;;4985024;28;20085;-84
2022/08/11 01:27:13;;;;;;;1.42;1.30;;;26.40;44.90;;;;;;5024484;28;20132;-82
2022/08/11 01:30:13;;;;;;;1.70;1.20;;;26.40;44.90;;;;;;4993998;28;20027;-84
2022/08/11 01:33:18;;;;;;;1.15;1.10;;;26.30;44.90;;;;;;5018549;28;20018;-84
2022/08/11 01:36:21;;;;;;;1.60;1.30;;;26.30;45.00;;;;;;4995219;28;20030;-83
2022/08/11 01:39:17;;;;;;;1.48;1.30;;;26.20;45.00;;;;;;4997817;28;20046;-83
2022/08/11 01:45:10;;;;;;;1.88;1.20;;;26.20;45.20;;;;;;4994763;28;20601;-84
2022/08/11 01:47:55;;;;;;;1.40;1.30;;;26.10;45.00;;;;;;4991645;28;20091;-84
2022/08/11 01:51:09;;;;;;;1.55;1.30;;;26.10;45.10;;;;;;4988513;28;20026;-84
2022/08/11 01:53:46;;;;;;;1.35;1.25;;;26.10;45.20;;;;;;4963392;28;20121;-83
2022/08/11 01:56:36;;;;;;;1.83;1.40;;;26.00;45.00;;;;;;4972688;28;20080;-85
2022/08/11 01:59:27;;;;;;;1.33;1.23;;;26.00;45.20;;;;;;4969093;28;20034;-84
2022/08/11 02:02:05;;;;;;;1.30;1.20;;;26.00;45.20;;;;;;4974883;28;20068;-85
2022/08/11 02:04:41;;;;;;;1.45;1.10;;;26.00;45.20;;;;;;4985194;28;20027;-84
2022/08/11 02:07:57;;;;;;;1.42;1.20;;;25.90;45.20;;;;;;4977929;28;20041;-86
2022/08/11 02:13:44;;;;;;;1.88;1.10;;;25.90;45.20;;;;;;4920039;29;20037;-84
2022/08/11 02:16:31;;;;;;;2.03;1.30;;;25.90;45.30;;;;;;4950948;28;20034;-84
2022/08/11 02:25:36;;;;;;;1.48;1.13;;;25.80;45.40;;;;;;4989155;28;20056;-83
2022/08/11 02:28:09;;;;;;;1.58;1.35;;;25.70;45.30;;;;;;4975809;28;20068;-83
2022/08/11 02:33:58;;;;;;;0.93;0.93;;;25.70;45.40;;;;;;4984881;28;20026;-83
2022/08/11 02:36:42;;;;;;;1.10;1.08;;;25.70;45.40;;;;;;4990165;28;20022;-84
2022/08/11 02:39:11;;;;;;;1.25;1.15;;;25.60;45.40;;;;;;4959614;28;20113;-84
2022/08/11 02:44:43;;;;;;;1.52;1.20;;;25.60;45.50;;;;;;4970029;28;20120;-84
2022/08/11 02:47:28;;;;;;;2.03;1.40;;;25.60;45.50;;;;;;4972641;28;20482;-84
2022/08/11 02:50:18;;;;;;;;;;;25.50;45.50;;;;;;4999025;28;20483;-83
2022/08/11 02:53:02;;;;;;;1.27;1.17;;;25.50;45.40;;;;;;4972055;28;20370;-85
2022/08/11 02:55:52;;;;;;;1.33;1.05;;;25.50;45.50;;;;;;4959789;28;20014;-84
2022/08/11 02:58:34;;;;;;;1.75;1.30;;;25.40;45.60;;;;;;4974946;28;20061;-84
2022/08/11 03:01:14;;;;;;;1.65;1.38;;;25.40;45.70;;;;;;4995587;28;20105;-84
2022/08/11 03:04:09;;;;;;;1.30;1.20;;;25.40;45.60;;;;;;4975445;28;20034;-84
2022/08/11 03:06:49;;;;;;;1.40;1.20;;;25.40;45.80;;;;;;4973552;28;20034;-84
2022/08/11 03:09:38;;;;;;;1.33;1.17;;;25.30;45.70;;;;;;4984387;28;20034;-84
2022/08/11 03:18:05;;;;;;;1.33;1.23;;;25.30;45.70;;;;;;4979824;28;20043;-84
2022/08/11 03:21:02;;;;;;;1.13;1.10;;;25.20;45.70;;;;;;5004802;28;20022;-83
2022/08/11 03:23:48;;;;;;;1.35;1.25;;;25.20;45.80;;;;;;5001760;28;20029;-84
2022/08/11 03:26:37;;;;;;;1.48;1.38;;;25.20;45.80;;;;;;4993303;28;20022;-84
2022/08/11 03:29:29;;;;;;;1.63;1.30;;;25.10;45.70;;;;;;4976653;28;20034;-84
2022/08/11 03:32:08;;;;;;;2.03;1.40;;;25.10;45.80;;;;;;4971740;28;20514;-84
2022/08/11 03:34:38;;;;;;;1.50;1.20;;;25.10;45.80;;;;;;4996482;28;20062;-85
2022/08/11 03:41:41;;;;;;;1.92;1.33;;;25.10;45.90;;;;;;4991799;28;20045;-84
2022/08/11 03:43:18;;;;;;;1.35;1.25;;;25.00;45.80;;;;;;4964511;28;20039;-85
2022/08/11 03:46:21;;;;;;;1.50;1.40;;;25.00;45.90;;;;;;4995169;28;20125;-84
2022/08/11 03:48:59;;;;;;;1.73;1.52;;;25.00;46.00;;;;;;4983099;28;20096;-84
2022/08/11 03:51:46;;;;;;;1.10;1.05;;;25.00;46.00;;;;;;5008292;28;20037;-84
2022/08/11 03:54:40;;;;;;;1.20;1.10;;;24.90;46.00;;;;;;4980721;28;20029;-83
2022/08/11 03:57:35;;;;;;;1.67;1.30;;;24.90;46.00;;;;;;4993583;28;20096;-85
2022/08/11 04:00:32;;;;;;;1.52;1.20;;;24.90;46.10;;;;;;4977840;28;20076;-84
2022/08/11 04:03:34;;;;;;;1.40;1.30;;;24.80;46.10;;;;;;4979034;28;20034;-84
2022/08/11 04:06:28;;;;;;;1.25;1.15;;;24.80;46.20;;;;;;4991151;28;20030;-85
2022/08/11 04:09:31;;;;;;;1.38;1.23;;;24.80;46.20;;;;;;4997782;28;20035;-84
2022/08/11 04:12:12;;;;;;;1.60;1.40;;;24.80;46.30;;;;;;5007778;28;20045;-84
2022/08/11 04:18:04;;;;;;;1.75;1.30;;;24.70;46.30;;;;;;5007727;28;20061;-84
2022/08/11 04:20:36;;;;;;;1.80;1.23;;;24.60;46.30;;;;;;4977178;28;20114;-84
2022/08/11 04:23:26;;;;;;;1.52;1.15;;;24.60;46.30;;;;;;4990160;28;20030;-84
2022/08/11 04:26:10;;;;;;;1.50;1.40;;;24.60;46.50;;;;;;4996006;28;20022;-85
2022/08/11 04:29:02;;;;;;;1.53;1.40;;;24.50;46.40;;;;;;4997664;28;20099;-85
2022/08/11 04:32:05;;;;;;;1.90;1.42;;;24.50;46.40;;;;;;5008585;28;20029;-84
2022/08/11 04:34:43;;;;;;;1.55;1.40;;;24.50;46.50;;;;;;4989926;28;20028;-84
2022/08/11 04:37:33;;;;;;;1.48;1.38;;;24.50;46.50;;;;;;4992552;28;20026;-84
2022/08/11 04:40:24;;;;;;;2.05;1.40;;;24.40;46.50;;;;;;4994488;28;20022;-83
2022/08/11 04:43:29;;;;;;;1.60;1.27;;;24.40;46.60;;;;;;4988644;28;20065;-83
2022/08/11 04:46:12;;;;;;;1.55;1.40;;;24.40;46.70;;;;;;4949423;28;20107;-83
2022/08/11 05:05:29;;;;;;;1.60;1.40;;;24.20;46.90;;;;;;4996833;28;20058;-82
2022/08/11 05:07:30;;;;;;;1.30;1.20;;;24.20;46.90;;;;;;5000925;28;20052;-83
2022/08/11 05:10:14;;;;;;;1.67;1.40;;;24.20;46.90;;;;;;5031917;28;20037;-83
2022/08/11 05:12:50;;;;;;;1.48;1.38;;;24.20;47.00;;;;;;4991533;28;20088;-82
2022/08/11 05:35:36;;;;;;;1.58;1.48;;;24.00;47.00;;;;;;5010925;28;20029;-81
2022/08/11 05:57:31;;;;;;;1.50;1.40;;;23.90;47.20;;;;;;5011098;28;20072;-83
2022/08/11 06:00:09;;;;;;;1.83;1.38;;;23.90;47.30;;;;;;4996269;28;20034;-83
2022/08/11 06:02:48;;;;;;;1.58;1.30;;;23.90;47.30;;;;;;4997071;28;20030;-84
2022/08/11 06:05:15;;;;;;;1.52;1.40;;;23.90;47.40;;;;;;5009617;28;20022;-84
2022/08/11 06:07:41;;;;;;;1.58;1.40;;;23.90;47.30;;;;;;4997629;28;20048;-84
2022/08/11 06:10:08;;;;;;;1.92;1.38;;;23.90;47.30;;;;;;4999923;28;20035;-82
2022/08/11 06:12:36;;;;;;;1.60;1.38;;;23.90;47.30;;;;;;4996565;28;20042;-83
2022/08/11 06:15:12;;;;;;;1.88;1.58;;;23.90;47.30;;;;;;4995804;28;20037;-81
2022/08/11 06:17:45;;;;;;;2.42;1.50;;;23.90;47.40;;;;;;4988490;28;20425;-83
2022/08/11 06:20:13;;;;;;;1.67;1.55;;;23.90;47.40;;;;;;4989133;28;20100;-83
2022/08/11 06:22:45;;;;;;;1.52;1.40;;;23.90;47.30;;;;;;4981539;28;20058;-83
2022/08/11 06:25:12;;;;;;;1.65;1.30;;;23.90;47.40;;;;;;4990301;28;20478;-83
2022/08/11 06:27:40;;;;;;;1.92;1.45;;;23.90;47.30;;;;;;4983432;28;20096;-84
2022/08/11 06:30:13;;;;;;;1.65;1.42;;;23.90;47.30;;;;;;4990101;28;20034;-87
2022/08/11 06:32:43;;;;;;;2.65;1.60;;;24.00;47.40;;;;;;4965705;28;20034;-85
2022/08/11 06:35:21;;;;;;;2.25;1.50;;;23.90;47.40;;;;;;5003757;28;20025;-85
2022/08/11 06:38:01;;;;;;;1.63;1.30;;;23.90;47.50;;;;;;4980265;28;20077;-89
2022/08/11 06:40:39;;;;;;;1.67;1.40;;;23.90;47.50;;;;;;4992146;28;20025;-86
2022/08/11 06:43:20;;;;;;;1.70;1.40;;;23.90;47.50;;;;;;4999176;28;20029;-90
2022/08/11 06:46:02;;;;;;;1.83;1.40;;;23.90;47.50;;;;;;4986311;28;20045;-87
2022/08/11 06:48:31;;;;;;;2.65;1.70;;;23.90;47.50;;;;;;4990678;28;20037;-84
2022/08/11 06:51:10;;;;;;;3.50;1.90;;;23.90;47.80;;;;;;4984130;28;20405;-84
2022/08/11 06:53:49;;;;;;;3.08;1.73;;;23.90;48.00;;;;;;4992083;28;20037;-85
2022/08/11 07:02:12;;;;;;;2.25;1.75;;;23.90;48.00;;;;;;5002659;28;20026;-83
2022/08/11 07:04:47;;;;;;;2.28;1.60;;;24.00;48.10;;;;;;4991798;28;20038;-83
2022/08/11 07:15:42;;;;;;;1.95;1.63;;;24.00;48.00;;;;;;4979716;28;20029;-82
2022/08/11 07:29:43;;;;;;;1.88;1.52;;;24.00;48.00;;;;;;5000788;28;20078;-85
2022/08/11 07:32:15;;;;;;;1.88;1.40;;;24.00;48.00;;;;;;4995982;28;20026;-84
2022/08/11 07:34:47;;;;;;;2.25;1.70;;;24.00;48.00;;;;;;4978654;28;20025;-84
2022/08/11 07:37:19;;;;;;;2.00;1.50;;;24.00;48.00;;;;;;5009735;28;20021;-84
2022/08/11 07:39:47;;;;;;;2.00;1.35;;;24.00;48.00;;;;;;4971586;28;20545;-84
2022/08/11 07:42:15;;;;;;;1.65;1.42;;;24.10;48.10;;;;;;4971705;28;20489;-83
2022/08/11 07:52:58;;;;;;;1.55;1.27;;;24.10;47.80;;;;;;4983148;28;19913;-83
2022/08/11 07:55:26;;;;;;;2.03;1.45;;;24.10;47.90;;;;;;4996021;28;20049;-83
2022/08/11 08:20:12;;;;;;;1.50;1.40;;;24.40;48.00;;;;;;5000502;28;20034;-84
2022/08/11 08:22:38;;;;;;;1.92;1.60;;;24.40;47.90;;;;;;4984047;28;20041;-83
2022/08/11 08:25:06;;;;;;;1.75;1.40;;;24.50;48.60;;;;;;4984682;28;20022;-83
2022/08/11 08:27:37;;;;;;;1.48;1.38;;;24.50;47.80;;;;;;4961370;28;20382;-81
2022/08/11 08:32:51;;;;;;;1.77;1.40;;;24.60;47.80;;;;;;4992723;28;20035;-82
2022/08/11 08:35:18;;;;;;;2.03;1.60;;;24.70;47.70;;;;;;5000376;28;20026;-81
2022/08/11 08:37:43;;;;;;;2.47;1.60;;;24.80;47.70;;;;;;5005793;28;20470;-86
2022/08/11 08:40:11;;;;;;;2.13;1.55;;;24.80;47.60;;;;;;4981092;28;20026;-84
2022/08/11 08:42:44;;;;;;;1.60;1.50;;;24.90;47.50;;;;;;4986789;28;20029;-84
2022/08/11 08:45:17;;;;;;;1.42;1.33;;;25.00;47.50;;;;;;4982043;28;20026;-83
2022/08/11 08:47:51;;;;;;;1.70;1.40;;;25.10;47.50;;;;;;4980827;28;20026;-83
2022/08/11 08:50:21;;;;;;;;;;;25.10;47.40;;;;;;5003624;28;20037;-84
2022/08/11 08:52:53;;;;;;;1.50;1.40;;;25.20;47.20;;;;;;5032363;28;19928;-85
2022/08/11 08:55:20;;;;;;;1.63;1.20;;;25.30;47.20;;;;;;5003185;28;20049;-85
2022/08/11 08:57:49;;;;;;;1.77;1.42;;;25.40;47.30;;;;;;4985885;28;20041;-83
2022/08/11 09:00:16;;;;;;;1.70;1.40;;;25.50;47.40;;;;;;4992697;28;20373;-82
2022/08/11 09:02:44;;;;;;;3.85;1.48;;;25.60;47.40;;;;;;5000024;28;20030;-82
2022/08/11 09:05:11;;;;;;;2.05;1.50;;;25.60;47.30;;;;;;5006328;28;20482;-84
2022/08/11 09:07:38;;;;;;;2.42;1.42;;;25.70;47.40;;;;;;5016183;28;20038;-84
2022/08/11 09:10:06;;;;;;;1.58;1.25;;;25.80;47.30;;;;;;4998204;28;20028;-84
2022/08/11 09:12:34;;;;;;;1.50;1.40;;;25.90;47.30;;;;;;4993749;28;20037;-83
2022/08/11 09:15:03;;;;;;;1.85;1.40;;;26.10;47.30;;;;;;4983264;28;20076;-83
2022/08/11 09:17:46;;;;;;;2.38;1.33;;;26.10;47.30;;;;;;5012733;28;20034;-83
2022/08/11 09:20:17;;;;;;;1.45;1.20;;;26.30;47.40;;;;;;4981705;28;20029;-84
2022/08/11 09:28:21;;;;;;;1.58;1.30;;;26.50;47.20;;;;;;4997223;28;20045;-82
2022/08/11 09:30:54;;;;;;;1.20;1.10;;;26.60;47.20;;;;;;4980535;28;20395;-83
2022/08/11 09:33:22;;;;;;;3.05;1.38;;;26.70;47.20;;;;;;4965812;28;20025;-83
2022/08/11 09:35:50;;;;;;;2.17;1.50;;;26.80;47.20;;;;;;4980778;28;20441;-85
2022/08/11 09:41:06;;;;;;;1.92;1.35;;;27.10;47.20;;;;;;5008326;28;20027;-86
2022/08/11 09:46:26;;;;;;;2.40;1.50;;;27.30;47.30;;;;;;5011807;28;20137;-84
2022/08/11 09:48:55;;;;;;;1.48;1.30;;;27.30;47.10;;;;;;4990526;28;20114;-82
2022/08/11 09:51:22;;;;;;;2.10;1.55;;;27.50;47.20;;;;;;4998505;28;20040;-83
2022/08/11 09:53:49;;;;;;;1.60;1.42;;;27.60;47.20;;;;;;4994722;28;20147;-84
2022/08/11 09:59:04;;;;;;;1.67;1.30;;;27.80;47.10;;;;;;4998029;28;20524;-83
2022/08/11 10:01:41;;;;;;;1.50;1.30;;;27.90;47.10;;;;;;4995622;28;20065;-83
2022/08/11 10:04:15;;;;;;;1.65;1.40;;;28.00;47.00;;;;;;5001814;28;20033;-82
2022/08/11 10:07:03;;;;;;;2.22;1.58;;;28.10;47.00;;;;;;4991569;28;20064;-84
2022/08/11 10:09:47;;;;;;;1.75;1.25;;;28.20;47.00;;;;;;4989266;28;20042;-84
2022/08/11 10:12:23;;;;;;;1.52;1.25;;;28.30;46.90;;;;;;4982501;28;20505;-83
2022/08/11 10:21:10;;;;;;;1.38;1.27;;;28.60;46.80;;;;;;4912460;29;20060;-86
2022/08/11 10:34:42;;;;;;;1.60;1.30;;;29.20;46.70;;;;;;4995118;28;20030;-83
2022/08/11 10:37:09;;;;;;;1.98;1.30;;;29.20;46.50;;;;;;4971369;28;20037;-83
2022/08/11 10:39:37;;;;;;;1.83;1.40;;;29.40;46.60;;;;;;4991424;28;20394;-82
2022/08/11 10:44:52;;;;;;;1.90;1.50;;;29.50;47.10;;;;;;4993098;28;20080;-83
2022/08/11 10:47:33;;;;;;;1.92;1.60;;;29.60;46.40;;;;;;5009321;28;20049;-83
2022/08/11 11:01:05;;;;;;;1.38;1.27;;;30.20;46.00;;;;;;4996069;28;20096;-84
2022/08/11 11:03:35;;;;;;;2.08;1.50;;;30.30;46.00;;;;;;4993064;28;20490;-83
2022/08/11 11:06:29;;;;;;;1.85;1.40;;;30.30;45.90;;;;;;5008727;28;20027;-85
2022/08/11 11:09:24;;;;;;;1.90;1.60;;;30.40;45.90;;;;;;4996454;28;20021;-82
2022/08/11 11:17:55;;;;;;;1.50;1.40;;;30.60;45.70;;;;;;4990865;28;20069;-85
2022/08/11 11:20:25;;;;;;;1.40;1.20;;;30.70;45.60;;;;;;4975557;28;20027;-84
2022/08/11 11:22:56;;;;;;;1.48;1.35;;;30.80;45.60;;;;;;4985291;28;20026;-84
2022/08/11 11:26:05;;;;;;;1.42;1.27;;;30.80;45.70;;;;;;4991222;28;20014;-85
2022/08/11 11:28:46;;;;;;;1.73;1.35;;;30.90;45.90;;;;;;5006732;28;20030;-84
2022/08/11 11:31:30;;;;;;;1.88;1.30;;;30.90;45.90;;;;;;4992619;28;20541;-84
2022/08/11 11:34:48;;;;;;;2.00;1.50;;;31.00;46.00;;;;;;5002654;28;20026;-83
2022/08/11 11:37:16;;;;;;;1.60;1.20;;;31.00;46.20;;;;;;4945115;28;20482;-84
2022/08/11 11:39:42;;;;;;;1.20;1.10;;;31.10;46.20;;;;;;4977787;28;20525;-84
2022/08/11 11:42:09;;;;;;;0.90;0.90;;;31.10;46.40;;;;;;4977057;28;20081;-84
2022/08/11 11:44:42;;;;;;;1.63;1.30;;;31.20;46.50;;;;;;4991344;28;20014;-84
2022/08/11 11:47:11;;;;;;;1.25;1.10;;;31.20;46.60;;;;;;4998215;28;20394;-84
2022/08/11 11:49:41;;;;;;;1.40;1.25;;;31.20;46.60;;;;;;4970847;28;20041;-86
2022/08/11 11:52:12;;;;;;;1.30;1.20;;;31.20;46.70;;;;;;4962460;28;20433;-88
2022/08/11 11:54:39;;;;;;;1.85;1.50;;;31.30;46.80;;;;;;4990602;28;20064;-88
2022/08/11 12:02:42;;;;;;;1.42;1.30;;;31.40;46.80;;;;;;4966591;28;20030;-87
2022/08/11 12:05:09;;;;;;;1.13;1.02;;;31.40;46.80;;;;;;4993318;28;20548;-86
2022/08/11 12:10:22;;;;;;;1.38;1.23;;;31.50;46.70;;;;;;5017544;28;20057;-86
2022/08/11 12:15:35;;;;;;;1.27;1.17;;;31.50;46.60;;;;;;5017840;28;20034;-87
2022/08/11 12:18:01;;;;;;;1.52;1.10;;;31.50;46.50;;;;;;4999600;28;20030;-85
2022/08/11 12:20:28;;;;;;;1.33;1.23;;;31.50;46.40;;;;;;4977931;28;20034;-86
2022/08/11 12:28:25;;;;;;;1.27;1.17;;;31.50;46.30;;;;;;4995523;28;20025;-86
2022/08/11 12:30:52;;;;;;;1.20;1.10;;;31.60;46.90;;;;;;4974249;28;20029;-86
2022/08/11 12:33:19;;;;;;;1.98;1.15;;;31.60;46.20;;;;;;4987205;28;20498;-86
2022/08/11 12:35:51;;;;;;;1.38;1.27;;;31.60;46.10;;;;;;5008107;28;20477;-86
2022/08/11 12:38:19;;;;;;;1.30;1.20;;;31.60;46.00;;;;;;4998400;28;20157;-85
2022/08/11 12:46:21;;;;;;;1.70;1.33;;;31.70;46.00;;;;;;4989920;28;20479;-85
2022/08/11 12:52:00;;;;;;;1.30;1.20;;;31.60;45.70;;;;;;4988399;28;20034;-86
2022/08/11 12:54:49;;;;;;;1.63;1.30;;;31.70;45.70;;;;;;4980174;28;20022;-84
2022/08/11 13:05:41;;;;;;;1.50;1.33;;;31.70;45.40;;;;;;4971890;28;20030;-87
2022/08/11 13:08:07;;;;;;;1.15;1.10;;;31.70;45.30;;;;;;4989165;28;20032;-87
2022/08/11 13:13:19;;;;;;;0.90;0.90;;;31.70;45.30;;;;;;4995322;28;20446;-86
2022/08/11 13:15:48;;;;;;;1.30;1.20;;;31.70;45.30;;;;;;4993829;28;20488;-87
2022/08/11 13:18:22;;;;;;;1.90;1.13;;;31.80;45.30;;;;;;5009823;28;20085;-87
2022/08/11 13:20:53;;;;;;;1.30;1.20;;;31.80;45.10;;;;;;4981672;28;20032;-87
2022/08/11 13:23:21;;;;;;;1.27;1.17;;;31.80;45.10;;;;;;5000961;28;20022;-86
2022/08/11 13:25:48;;;;;;;1.00;0.93;;;31.80;45.00;;;;;;4983242;28;20089;-84
2022/08/11 13:28:20;;;;;;;1.30;1.20;;;31.80;44.80;;;;;;4985825;28;20052;-83
2022/08/11 13:33:34;;;;;;;2.17;1.27;;;31.80;44.50;;;;;;5001955;28;20369;-82
2022/08/11 13:36:01;;;;;;;1.20;1.10;;;31.90;44.40;;;;;;4983295;28;20083;-83
2022/08/11 13:38:31;;;;;;;1.73;1.50;;;31.90;44.70;;;;;;4977320;28;20255;-82
2022/08/11 13:40:57;;;;;;;1.50;1.30;;;31.90;44.30;;;;;;4980746;28;20038;-80
2022/08/11 13:43:27;;;;;;;1.23;1.13;;;31.90;44.40;;;;;;4974238;28;20109;-85
2022/08/11 13:46:17;;;;;;;2.13;1.40;;;31.90;44.50;;;;;;4992425;28;20144;-82
2022/08/11 13:48:41;;;;;;;1.30;1.20;;;31.90;44.40;;;;;;4996243;28;20239;-84
2022/08/11 13:53:54;;;;;;;1.52;1.30;;;31.90;44.20;;;;;;4996149;28;20037;-83
2022/08/11 13:56:22;;;;;;;1.55;1.38;;;31.90;44.20;;;;;;5003677;28;20029;-82
2022/08/11 13:58:52;;;;;;;1.83;1.30;;;31.90;44.10;;;;;;5021513;28;20041;-83
2022/08/11 14:01:27;;;;;;;1.40;1.30;;;31.90;44.00;;;;;;4980974;28;20025;-85
2022/08/11 14:03:53;;;;;;;2.67;1.20;;;31.90;44.00;;;;;;5001549;28;20030;-82
2022/08/11 14:06:21;;;;;;;1.33;1.10;;;31.90;43.90;;;;;;4983788;28;20033;-82
2022/08/11 14:08:52;;;;;;;1.30;1.20;;;32.00;43.90;;;;;;4992575;28;20032;-83
2022/08/11 14:14:10;;;;;;;1.45;1.33;;;31.90;43.50;;;;;;4998845;28;20033;-84
2022/08/11 14:16:41;;;;;;;1.48;1.30;;;31.90;43.50;;;;;;4984399;28;20021;-81
2022/08/11 14:19:12;;;;;;;1.33;1.23;;;31.90;43.50;;;;;;5003636;28;20029;-84
2022/08/11 14:24:27;;;;;;;1.30;1.20;;;31.90;43.40;;;;;;5018792;28;20041;-85
2022/08/11 14:26:53;;;;;;;1.20;1.10;;;32.00;43.50;;;;;;4983258;28;20065;-84
2022/08/11 14:29:21;;;;;;;1.38;1.27;;;32.00;43.50;;;;;;5004787;28;20034;-85
2022/08/11 14:31:55;;;;;;;2.50;1.30;;;32.00;43.60;;;;;;4986650;28;20406;-85
2022/08/11 14:34:23;;;;;;;2.45;1.30;;;31.90;43.50;;;;;;4989134;28;20022;-85
2022/08/11 14:36:58;;;;;;;1.65;1.30;;;32.00;43.60;;;;;;4989062;28;20049;-84
2022/08/11 14:39:30;;;;;;;1.30;1.20;;;32.00;43.40;;;;;;5000001;28;20076;-82
2022/08/11 14:47:42;;;;;;;1.27;1.17;;;32.00;43.70;;;;;;5020344;28;20049;-81
2022/08/11 14:50:13;;;;;;;1.35;1.25;;;32.00;43.70;;;;;;4981182;28;20119;-85
2022/08/11 14:52:46;;;;;;;1.40;1.30;;;32.00;43.70;;;;;;4990538;28;20432;-84
2022/08/11 14:58:00;;;;;;;1.58;1.30;;;32.00;43.60;;;;;;5019620;28;20504;-83
2022/08/11 15:00:27;;;;;;;2.15;1.23;;;32.00;43.50;;;;;;4975342;28;20018;-83
2022/08/11 15:03:11;;;;;;;1.60;1.30;;;32.00;43.50;;;;;;4984129;28;20022;-83
2022/08/11 15:05:48;;;;;;;1.65;1.35;;;32.00;43.70;;;;;;4987469;28;20048;-87
2022/08/11 15:08:15;;;;;;;1.50;1.33;;;32.00;43.70;;;;;;5013349;28;20088;-82
2022/08/11 15:10:41;;;;;;;1.40;1.30;;;32.00;43.60;;;;;;4959961;28;20030;-81
2022/08/11 15:13:09;;;;;;;1.35;1.25;;;32.00;43.50;;;;;;4984475;28;20506;-82
2022/08/11 15:18:25;;;;;;;1.70;1.30;;;32.00;43.50;;;;;;4993609;28;20126;-81
2022/08/11 15:37:41;;;;;;;1.40;1.23;;;32.00;43.10;;;;;;5007212;28;20458;-81
2022/08/11 15:46:21;;;;;;;1.30;1.20;;;32.00;42.90;;;;;;5011058;28;20070;-84
2022/08/11 15:49:24;;;;;;;1.25;1.15;;;32.00;42.90;;;;;;4966812;28;20040;-81
2022/08/11 15:51:58;;;;;;;1.40;1.20;;;32.00;42.80;;;;;;4914263;29;20063;-82
2022/08/11 15:54:29;;;;;;;1.33;1.23;;;32.00;42.80;;;;;;4974145;28;20039;-81
2022/08/11 15:57:00;;;;;;;1.33;1.23;;;32.00;42.70;;;;;;4967759;28;20105;-80
2022/08/11 16:04:54;;;;;;;1.45;1.17;;;32.10;42.70;;;;;;4985879;28;20114;-80
2022/08/11 16:07:26;;;;;;;1.85;1.45;;;32.10;42.70;;;;;;4994145;28;20029;-82
2022/08/11 16:10:06;;;;;;;1.33;1.23;;;32.10;42.70;;;;;;4995125;28;20030;-81
2022/08/11 16:12:41;;;;;;;1.27;1.17;;;32.10;42.60;;;;;;4968775;28;20401;-84
2022/08/11 16:18:02;;;;;;;1.30;1.20;;;32.10;42.60;;;;;;4974296;28;20030;-83
2022/08/11 16:20:28;;;;;;;;;;;32.20;42.60;;;;;;4967198;28;20094;-82
2022/08/11 16:22:59;;;;;;;1.23;1.10;;;32.20;42.70;;;;;;4969492;28;19909;-81
2022/08/11 16:25:26;;;;;;;1.10;1.10;;;32.20;42.60;;;;;;4977245;28;20113;-80
2022/08/11 16:28:04;;;;;;;1.42;1.10;;;32.20;42.60;;;;;;4973288;28;20031;-84
2022/08/11 16:30:38;;;;;;;1.30;1.20;;;32.20;42.60;;;;;;4968317;28;20035;-83
2022/08/11 16:33:05;;;;;;;1.40;1.30;;;32.20;42.50;;;;;;4968249;28;20379;-81
2022/08/11 16:38:36;;;;;;;1.25;1.10;;;32.30;42.40;;;;;;4978305;28;20034;-82
2022/08/11 16:41:06;;;;;;;1.20;1.10;;;32.30;42.30;;;;;;4990716;28;20489;-80
2022/08/11 16:49:10;;;;;;;1.40;1.20;;;32.30;42.20;;;;;;4986606;28;20034;-81
2022/08/11 16:51:36;;;;;;;1.50;1.30;;;32.30;42.20;;;;;;4979913;28;20129;-81
2022/08/11 16:54:02;;;;;;;1.58;1.05;;;32.30;42.10;;;;;;4990619;28;20487;-80
2022/08/11 16:56:36;;;;;;;2.40;1.20;;;32.30;42.10;;;;;;4966977;28;20039;-80
2022/08/11 16:59:13;;;;;;;2.40;1.33;;;32.40;42.20;;;;;;4968126;28;20467;-80
2022/08/11 17:02:05;;;;;;;1.50;1.33;;;32.40;42.10;;;;;;4969144;28;20141;-81
2022/08/11 17:13:46;;;;;;;1.63;1.40;;;32.40;42.00;;;;;;4992185;28;20088;-82
2022/08/11 17:16:15;;;;;;;1.20;1.10;;;32.40;41.90;;;;;;4977279;28;20572;-80
2022/08/11 17:18:59;;;;;;;1.30;1.20;;;32.40;41.90;;;;;;4994202;28;20084;-80
2022/08/11 17:24:34;;;;;;;1.20;1.10;;;32.40;41.70;;;;;;4986291;28;20036;-81
2022/08/11 17:27:02;;;;;;;1.30;1.20;;;32.40;41.60;;;;;;4987766;28;20368;-84
2022/08/11 17:29:39;;;;;;;1.60;1.23;;;32.50;41.60;;;;;;4998601;28;20033;-81
2022/08/11 17:37:50;;;;;;;;;;;32.50;41.40;;;;;;4980612;28;20106;-83
2022/08/11 17:40:24;;;;;;;1.48;1.10;;;32.50;41.50;;;;;;4985037;28;20016;-82
2022/08/11 17:48:30;;;;;;;1.50;1.30;;;32.40;41.30;;;;;;4984202;28;20026;-82
2022/08/11 17:51:03;;;;;;;1.92;1.17;;;32.40;41.30;;;;;;4988826;28;20470;-84
2022/08/11 18:04:50;;;;;;;1.42;1.20;;;32.40;41.10;;;;;;4984143;28;20089;-82
